createdAt,value
2022-07-28T00:00:55.835Z,0
2022-07-28T00:06:13.007Z,0
2022-07-28T00:11:30.156Z,0
2022-07-28T00:16:47.522Z,0
2022-07-28T00:22:04.822Z,0
2022-07-28T00:27:22.033Z,0
2022-07-28T00:32:39.365Z,0
2022-07-28T00:37:56.689Z,0
2022-07-28T00:43:15.381Z,0
2022-07-28T00:48:33.241Z,0
2022-07-28T00:53:50.529Z,0
2022-07-28T00:59:11.032Z,0
2022-07-28T01:04:28.543Z,0
2022-07-28T01:09:46.003Z,0
2022-07-28T01:15:03.129Z,0
2022-07-28T01:20:20.371Z,0
2022-07-28T01:25:37.570Z,0
2022-07-28T01:30:54.853Z,0
2022-07-28T01:36:12.190Z,0
2022-07-28T01:41:29.433Z,0
2022-07-28T01:46:47.001Z,0
2022-07-28T01:52:04.300Z,0
2022-07-28T01:57:21.499Z,0
2022-07-28T02:02:38.986Z,0
2022-07-28T02:07:56.230Z,0
2022-07-28T02:13:13.529Z,0
2022-07-28T02:23:51.314Z,0
2022-07-28T02:29:14.899Z,0
2022-07-28T02:34:39.934Z,0
2022-07-28T02:39:59.860Z,0
2022-07-28T02:45:17.850Z,0
2022-07-28T02:50:34.953Z,0
2022-07-28T02:55:52.144Z,0
2022-07-28T03:01:09.626Z,0
2022-07-28T03:06:28.739Z,0
2022-07-28T03:11:46.457Z,0.3
2022-07-28T03:17:03.660Z,1
2022-07-28T03:22:24.010Z,0
2022-07-28T03:27:41.172Z,0
2022-07-28T03:38:18.500Z,24.2
2022-07-28T03:43:35.725Z,46.7
2022-07-28T03:48:52.825Z,81.7
2022-07-28T03:54:10.156Z,125.4
2022-07-28T03:59:27.549Z,197.9
2022-07-28T04:04:44.427Z,307.1
2022-07-28T04:10:02.575Z,439.6
2022-07-28T04:15:19.549Z,586.7
2022-07-28T04:25:58.876Z,827.1
2022-07-28T04:31:16.059Z,1019.6
2022-07-28T04:36:33.114Z,1248.3
2022-07-28T04:41:50.471Z,1480.8
2022-07-28T04:47:07.442Z,1927.1
2022-07-28T04:52:24.809Z,2105
2022-07-28T04:57:41.701Z,2543.3
2022-07-28T05:02:58.648Z,2752.9
2022-07-28T05:08:15.574Z,2317.5
2022-07-28T05:13:33.902Z,2203.3
2022-07-28T05:18:51.160Z,1856.7
2022-07-28T05:24:11.206Z,1745
2022-07-28T05:29:41.866Z,1874.2
2022-07-28T05:35:07.446Z,2265.8
2022-07-28T05:40:24.913Z,2917.1
2022-07-28T05:45:43.291Z,3371.7
2022-07-28T05:51:02.461Z,4467.5
2022-07-28T05:56:42.711Z,6340
2022-07-28T06:02:02.049Z,7685
2022-07-28T06:07:20.358Z,8208.8
2022-07-28T06:12:39.186Z,4337.5
2022-07-28T06:18:03.509Z,10333.7
2022-07-28T06:23:21.163Z,11302.9
2022-07-28T06:28:42.854Z,11662.5
2022-07-28T06:34:00.360Z,10331.2
2022-07-28T06:39:18.106Z,7381.3
2022-07-28T06:50:25.393Z,9327.1
2022-07-28T06:55:44.925Z,6404.2
2022-07-28T07:01:08.337Z,5902.5
2022-07-28T07:11:49.141Z,8125.8
2022-07-28T07:17:06.515Z,6244.2
2022-07-28T07:22:23.473Z,21122.9
2022-07-28T07:27:40.697Z,6764.6
2022-07-28T07:32:56.927Z,18530
2022-07-28T07:38:14.209Z,23510.8
2022-07-28T07:43:30.890Z,22452.1
2022-07-28T07:48:55.303Z,24303.3
2022-07-28T07:54:13.295Z,26284.6
2022-07-28T07:59:31.262Z,24624.6
2022-07-28T08:04:48.467Z,29189.2
2022-07-28T08:15:25.943Z,30840
2022-07-28T08:20:43.178Z,33140
2022-07-28T08:26:00.096Z,35864.2
2022-07-28T08:31:21.604Z,37400
2022-07-28T08:36:38.993Z,37168.3
2022-07-28T08:41:56.174Z,37606.7
2022-07-28T08:47:13.383Z,41261.7
2022-07-28T08:57:50.623Z,43330
2022-07-28T09:03:07.993Z,44847.5
2022-07-28T09:08:25.986Z,43385
2022-07-28T09:13:43.364Z,41957.5
2022-07-28T09:18:59.931Z,42185.8
2022-07-28T09:24:17.120Z,42017.5
2022-07-28T09:29:34.270Z,43201.7
2022-07-28T09:45:35.532Z,48073.3
2022-07-28T09:50:52.773Z,52386.1
2022-07-28T09:56:09.951Z,53942.2
2022-07-28T10:01:28.046Z,53248.6
2022-07-28T10:06:51.241Z,55227
2022-07-28T10:12:08.714Z,57737.2
2022-07-28T10:17:26.195Z,62678.6
2022-07-28T10:22:43.592Z,64892.3
2022-07-28T10:28:01.091Z,55827.1
2022-07-28T10:33:20.814Z,57142.4
2022-07-28T10:38:40.631Z,60646.3
2022-07-28T10:43:57.806Z,59843.1
2022-07-28T10:54:32.128Z,61034.5
2022-07-28T10:59:49.338Z,65181.6
2022-07-28T11:05:10.207Z,66166.3
2022-07-28T11:10:32.708Z,68076.4
2022-07-28T11:15:51.169Z,31516.7
2022-07-28T11:21:09.435Z,55394.1
2022-07-28T11:27:02.335Z,30217.5
2022-07-28T11:32:20.099Z,59187.3
2022-07-28T11:37:45.790Z,50864.1
2022-07-28T11:43:04.706Z,61431.6
2022-07-28T11:48:23.323Z,74859.6
2022-07-28T11:53:37.310Z,25636.7
2022-07-28T11:58:53.339Z,26916.2
2022-07-28T12:04:10.404Z,34367.5
2022-07-28T12:09:34.858Z,75398.7
2022-07-28T12:14:57.356Z,35010
2022-07-28T12:20:14.237Z,61674.1
2022-07-28T12:25:34.393Z,51778.8
2022-07-28T12:30:51.228Z,54281.8
2022-07-28T12:36:09.585Z,55873.8
2022-07-28T12:41:27.260Z,50060.9
2022-07-28T12:46:44.505Z,59909.6
2022-07-28T12:52:03.176Z,78318.6
2022-07-28T12:57:20.739Z,46547.5
2022-07-28T13:02:39.854Z,81666.2
2022-07-28T13:13:17.940Z,37223.3
2022-07-28T13:18:37.564Z,27183.3
2022-07-28T13:29:12.651Z,22468.3
2022-07-28T13:34:29.294Z,40585
2022-07-28T13:39:48.507Z,25730
2022-07-28T13:45:07.526Z,20062.9
2022-07-28T13:55:34.040Z,18565
2022-07-28T14:00:50.707Z,18636.7
2022-07-28T14:06:07.982Z,17058.3
2022-07-28T14:11:25.502Z,15134.6
2022-07-28T14:16:42.240Z,13454.2
2022-07-28T14:21:58.975Z,20075.8
2022-07-28T14:27:16.648Z,25210.4
2022-07-28T14:32:34.280Z,34060.8
2022-07-28T14:38:35.375Z,32585.8
2022-07-28T14:44:07.362Z,28349.2
2022-07-28T14:49:31.885Z,17687.5
2022-07-28T14:59:50.038Z,14590.8
2022-07-28T15:05:07.059Z,14430.8
2022-07-28T15:10:23.730Z,13433.8
2022-07-28T15:15:44.429Z,11932.5
2022-07-28T15:21:05.437Z,13224.6
2022-07-28T15:26:22.420Z,14701.7
2022-07-28T15:31:39.677Z,13771.7
2022-07-28T15:36:56.886Z,12398.7
2022-07-28T15:42:14.123Z,12199.6
2022-07-28T15:47:31.019Z,12175.4
2022-07-28T15:52:47.908Z,9608.7
2022-07-28T15:58:04.594Z,9207.9
2022-07-28T16:03:21.425Z,10777.1
2022-07-28T16:08:38.945Z,10339.6
2022-07-28T16:13:56.316Z,9254.2
2022-07-28T16:19:38.462Z,9779.2
2022-07-28T16:25:04.123Z,9520.4
2022-07-28T16:30:21.065Z,9109.2
2022-07-28T16:35:37.810Z,8418.3
2022-07-28T16:40:54.781Z,7455
2022-07-28T16:46:12.375Z,7088.7
2022-07-28T16:51:38.641Z,7021.7
2022-07-28T16:56:55.468Z,6625.4
2022-07-28T17:02:14.798Z,5818.8
2022-07-28T17:07:31.808Z,5240
2022-07-28T17:12:50.008Z,5091.3
2022-07-28T17:18:47.670Z,5405
2022-07-28T17:24:04.846Z,5942.9
2022-07-28T17:29:21.796Z,6229.2
2022-07-28T17:34:39.015Z,5238.8
2022-07-28T17:39:55.767Z,4459.6
2022-07-28T17:45:24.191Z,4335
2022-07-28T17:50:41.469Z,3956.3
2022-07-28T17:56:00.981Z,3306.7
2022-07-28T18:01:18.252Z,2868.8
2022-07-28T18:06:35.585Z,2495
2022-07-28T18:11:56.251Z,2098.8
2022-07-28T18:17:15.091Z,1796.3
2022-07-28T18:22:42.422Z,1448.3
2022-07-28T18:27:59.569Z,1144.6
2022-07-28T18:33:16.255Z,879.2
2022-07-28T18:43:49.670Z,901.7
2022-07-28T18:49:06.615Z,1072.1
2022-07-28T18:54:34.643Z,1168.8
2022-07-28T18:59:52.293Z,894.2
2022-07-28T19:05:09.267Z,565
2022-07-28T19:10:25.900Z,367.9
2022-07-28T19:15:42.837Z,274.6
2022-07-28T19:20:59.733Z,204.6
2022-07-28T19:26:16.588Z,143.8
2022-07-28T19:31:34.085Z,92.9
2022-07-28T19:36:51.099Z,56.2
2022-07-28T19:42:07.898Z,30
2022-07-28T19:47:27.795Z,15.3
2022-07-28T19:52:44.933Z,6.8
2022-07-28T19:58:02.594Z,3.1
2022-07-28T20:04:00.511Z,1.4
2022-07-28T20:09:21.686Z,0.5
2022-07-28T20:14:39.161Z,0
2022-07-28T20:25:16.910Z,0
2022-07-28T20:30:34.169Z,0
2022-07-28T20:41:12.131Z,0
2022-07-28T20:46:29.515Z,0
2022-07-28T20:51:51.088Z,0
2022-07-28T20:57:08.695Z,0
2022-07-28T21:02:26.066Z,0
2022-07-28T21:08:00.857Z,0
2022-07-28T21:13:23.855Z,0
2022-07-28T21:23:58.228Z,0
2022-07-28T21:34:33.889Z,0
2022-07-28T21:39:54.552Z,0
2022-07-28T21:45:11.803Z,0
2022-07-28T21:50:29.060Z,0
2022-07-28T22:00:59.421Z,0
2022-07-28T22:11:43.404Z,0
2022-07-28T22:17:00.553Z,0
2022-07-28T22:22:18.222Z,0
2022-07-28T22:27:35.482Z,0
2022-07-28T22:32:53.071Z,0
2022-07-28T22:38:10.527Z,0
2022-07-28T22:43:27.723Z,0
2022-07-28T22:48:47.318Z,0
2022-07-28T22:54:04.846Z,0
2022-07-28T22:59:21.786Z,0
2022-07-28T23:04:39.693Z,0
2022-07-28T23:09:57.002Z,0
2022-07-28T23:15:14.499Z,0
2022-07-28T23:20:34.504Z,0
2022-07-28T23:26:38.942Z,0
2022-07-28T23:31:57.095Z,0
2022-07-28T23:37:14.663Z,0
2022-07-28T23:42:40.782Z,0
2022-07-28T23:47:59.068Z,0
2022-07-28T23:53:16.336Z,0
2022-07-28T23:58:33.903Z,0
